sensor_id;sensor_type;location;lat;lon;timestamp;P1;durP1;ratioP1;P2;durP2;ratioP2
12900;SDS011;6518;50.930;5.344;2023-04-24T00:00:58;9.90;;;6.77;;
12900;SDS011;6518;50.930;5.344;2023-04-24T00:03:27;12.73;;;7.53;;
12900;SDS011;6518;50.930;5.344;2023-04-24T00:05:54;13.80;;;8.40;;
12900;SDS011;6518;50.930;5.344;2023-04-24T00:08:22;11.03;;;7.47;;
12900;SDS011;6518;50.930;5.344;2023-04-24T00:10:49;14.17;;;8.37;;
12900;SDS011;6518;50.930;5.344;2023-04-24T00:13:17;13.47;;;7.97;;
12900;SDS011;6518;50.930;5.344;2023-04-24T00:15:44;11.27;;;8.20;;
12900;SDS011;6518;50.930;5.344;2023-04-24T00:18:11;13.37;;;7.93;;
12900;SDS011;6518;50.930;5.344;2023-04-24T00:20:38;12.70;;;8.33;;
12900;SDS011;6518;50.930;5.344;2023-04-24T00:23:05;14.70;;;8.30;;
12900;SDS011;6518;50.930;5.344;2023-04-24T00:25:34;13.17;;;8.33;;
12900;SDS011;6518;50.930;5.344;2023-04-24T00:28:00;12.93;;;7.90;;
12900;SDS011;6518;50.930;5.344;2023-04-24T00:30:27;11.17;;;8.07;;
12900;SDS011;6518;50.930;5.344;2023-04-24T00:32:55;13.03;;;8.50;;
12900;SDS011;6518;50.930;5.344;2023-04-24T00:35:22;11.37;;;9.00;;
12900;SDS011;6518;50.930;5.344;2023-04-24T00:37:49;13.60;;;9.70;;
12900;SDS011;6518;50.930;5.344;2023-04-24T00:40:15;16.00;;;9.63;;
12900;SDS011;6518;50.930;5.344;2023-04-24T00:42:44;17.17;;;10.00;;
12900;SDS011;6518;50.930;5.344;2023-04-24T00:45:11;13.93;;;9.97;;
12900;SDS011;6518;50.930;5.344;2023-04-24T00:47:39;18.07;;;10.70;;
12900;SDS011;6518;50.930;5.344;2023-04-24T00:50:06;18.43;;;11.40;;
12900;SDS011;6518;50.930;5.344;2023-04-24T00:52:34;13.60;;;10.27;;
12900;SDS011;6518;50.930;5.344;2023-04-24T00:55:02;18.33;;;10.60;;
12900;SDS011;6518;50.930;5.344;2023-04-24T00:57:30;13.87;;;11.47;;
12900;SDS011;6518;50.930;5.344;2023-04-24T00:59:59;15.20;;;11.17;;
12900;SDS011;6518;50.930;5.344;2023-04-24T01:02:26;12.97;;;10.17;;
12900;SDS011;6518;50.930;5.344;2023-04-24T01:04:53;11.50;;;10.07;;
12900;SDS011;6518;50.930;5.344;2023-04-24T01:07:20;15.73;;;11.10;;
12900;SDS011;6518;50.930;5.344;2023-04-24T01:09:47;16.90;;;10.63;;
12900;SDS011;6518;50.930;5.344;2023-04-24T01:12:16;15.70;;;10.63;;
12900;SDS011;6518;50.930;5.344;2023-04-24T01:14:43;15.83;;;10.40;;
12900;SDS011;6518;50.930;5.344;2023-04-24T01:17:12;18.27;;;11.30;;
12900;SDS011;6518;50.930;5.344;2023-04-24T01:19:40;15.87;;;11.17;;
12900;SDS011;6518;50.930;5.344;2023-04-24T01:22:11;18.90;;;11.90;;
12900;SDS011;6518;50.930;5.344;2023-04-24T01:24:39;14.43;;;10.60;;
12900;SDS011;6518;50.930;5.344;2023-04-24T01:27:07;17.87;;;11.43;;
12900;SDS011;6518;50.930;5.344;2023-04-24T01:29:35;18.20;;;10.73;;
12900;SDS011;6518;50.930;5.344;2023-04-24T01:32:02;18.50;;;11.03;;
12900;SDS011;6518;50.930;5.344;2023-04-24T01:34:29;20.90;;;11.07;;
12900;SDS011;6518;50.930;5.344;2023-04-24T01:36:56;14.17;;;10.33;;
12900;SDS011;6518;50.930;5.344;2023-04-24T01:39:24;15.80;;;10.40;;
12900;SDS011;6518;50.930;5.344;2023-04-24T01:41:53;15.50;;;9.93;;
12900;SDS011;6518;50.930;5.344;2023-04-24T01:44:20;19.53;;;10.33;;
12900;SDS011;6518;50.930;5.344;2023-04-24T01:46:47;16.00;;;10.90;;
12900;SDS011;6518;50.930;5.344;2023-04-24T01:49:14;15.43;;;10.43;;
12900;SDS011;6518;50.930;5.344;2023-04-24T01:51:41;16.20;;;10.27;;
12900;SDS011;6518;50.930;5.344;2023-04-24T01:54:08;13.03;;;10.37;;
12900;SDS011;6518;50.930;5.344;2023-04-24T01:56:37;16.47;;;10.43;;
12900;SDS011;6518;50.930;5.344;2023-04-24T01:59:06;21.50;;;11.37;;
12900;SDS011;6518;50.930;5.344;2023-04-24T02:01:35;19.93;;;10.97;;
12900;SDS011;6518;50.930;5.344;2023-04-24T02:04:03;19.33;;;9.93;;
12900;SDS011;6518;50.930;5.344;2023-04-24T02:06:30;14.10;;;10.40;;
12900;SDS011;6518;50.930;5.344;2023-04-24T02:08:57;13.37;;;9.63;;
12900;SDS011;6518;50.930;5.344;2023-04-24T02:11:24;16.97;;;10.50;;
12900;SDS011;6518;50.930;5.344;2023-04-24T02:13:53;21.47;;;11.70;;
12900;SDS011;6518;50.930;5.344;2023-04-24T02:16:19;14.23;;;10.57;;
12900;SDS011;6518;50.930;5.344;2023-04-24T02:18:46;19.37;;;12.30;;
12900;SDS011;6518;50.930;5.344;2023-04-24T02:21:13;19.83;;;11.97;;
12900;SDS011;6518;50.930;5.344;2023-04-24T02:23:40;17.13;;;11.20;;
12900;SDS011;6518;50.930;5.344;2023-04-24T02:26:07;18.03;;;11.10;;
12900;SDS011;6518;50.930;5.344;2023-04-24T02:28:34;16.43;;;11.30;;
12900;SDS011;6518;50.930;5.344;2023-04-24T02:31:03;19.50;;;11.80;;
12900;SDS011;6518;50.930;5.344;2023-04-24T02:33:30;16.47;;;10.90;;
12900;SDS011;6518;50.930;5.344;2023-04-24T02:35:57;12.73;;;10.60;;
12900;SDS011;6518;50.930;5.344;2023-04-24T02:38:24;14.53;;;10.57;;
12900;SDS011;6518;50.930;5.344;2023-04-24T02:40:51;14.23;;;10.43;;
12900;SDS011;6518;50.930;5.344;2023-04-24T02:43:18;17.60;;;10.07;;
12900;SDS011;6518;50.930;5.344;2023-04-24T02:45:45;11.37;;;9.47;;
12900;SDS011;6518;50.930;5.344;2023-04-24T02:48:13;12.07;;;9.77;;
12900;SDS011;6518;50.930;5.344;2023-04-24T02:50:40;13.80;;;10.13;;
12900;SDS011;6518;50.930;5.344;2023-04-24T02:53:07;11.37;;;9.43;;
12900;SDS011;6518;50.930;5.344;2023-04-24T02:55:34;13.63;;;10.53;;
12900;SDS011;6518;50.930;5.344;2023-04-24T02:58:01;12.40;;;9.67;;
12900;SDS011;6518;50.930;5.344;2023-04-24T03:00:28;12.70;;;9.80;;
12900;SDS011;6518;50.930;5.344;2023-04-24T03:02:55;11.67;;;10.10;;
12900;SDS011;6518;50.930;5.344;2023-04-24T03:05:23;12.20;;;9.53;;
12900;SDS011;6518;50.930;5.344;2023-04-24T03:07:50;11.17;;;9.47;;
12900;SDS011;6518;50.930;5.344;2023-04-24T03:10:18;11.90;;;9.77;;
12900;SDS011;6518;50.930;5.344;2023-04-24T03:12:45;12.03;;;9.53;;
12900;SDS011;6518;50.930;5.344;2023-04-24T03:15:12;14.40;;;10.00;;
12900;SDS011;6518;50.930;5.344;2023-04-24T03:17:39;12.90;;;10.07;;
12900;SDS011;6518;50.930;5.344;2023-04-24T03:20:06;15.07;;;10.30;;
12900;SDS011;6518;50.930;5.344;2023-04-24T03:22:35;14.30;;;10.43;;
12900;SDS011;6518;50.930;5.344;2023-04-24T03:25:02;13.53;;;10.33;;
12900;SDS011;6518;50.930;5.344;2023-04-24T03:27:30;15.33;;;10.03;;
12900;SDS011;6518;50.930;5.344;2023-04-24T03:29:57;14.70;;;10.13;;
12900;SDS011;6518;50.930;5.344;2023-04-24T03:32:23;15.30;;;10.27;;
12900;SDS011;6518;50.930;5.344;2023-04-24T03:34:50;15.27;;;10.00;;
12900;SDS011;6518;50.930;5.344;2023-04-24T03:37:18;13.60;;;10.87;;
12900;SDS011;6518;50.930;5.344;2023-04-24T03:39:46;15.93;;;9.83;;
12900;SDS011;6518;50.930;5.344;2023-04-24T03:42:13;14.33;;;10.20;;
12900;SDS011;6518;50.930;5.344;2023-04-24T03:44:40;10.97;;;9.37;;
12900;SDS011;6518;50.930;5.344;2023-04-24T03:47:07;13.93;;;10.03;;
12900;SDS011;6518;50.930;5.344;2023-04-24T03:49:34;14.87;;;9.57;;
12900;SDS011;6518;50.930;5.344;2023-04-24T03:52:01;11.50;;;9.13;;
12900;SDS011;6518;50.930;5.344;2023-04-24T03:54:28;15.83;;;9.30;;
12900;SDS011;6518;50.930;5.344;2023-04-24T03:56:56;13.60;;;9.93;;
12900;SDS011;6518;50.930;5.344;2023-04-24T03:59:23;11.27;;;8.87;;
12900;SDS011;6518;50.930;5.344;2023-04-24T04:01:50;12.73;;;9.67;;
12900;SDS011;6518;50.930;5.344;2023-04-24T04:04:17;13.53;;;9.13;;
12900;SDS011;6518;50.930;5.344;2023-04-24T04:06:43;14.10;;;9.73;;
12900;SDS011;6518;50.930;5.344;2023-04-24T04:09:11;12.17;;;9.17;;
12900;SDS011;6518;50.930;5.344;2023-04-24T04:11:38;13.13;;;9.27;;
12900;SDS011;6518;50.930;5.344;2023-04-24T04:14:06;13.17;;;9.60;;
12900;SDS011;6518;50.930;5.344;2023-04-24T04:16:33;13.43;;;9.03;;
12900;SDS011;6518;50.930;5.344;2023-04-24T04:19:01;12.20;;;8.67;;
12900;SDS011;6518;50.930;5.344;2023-04-24T04:21:29;12.27;;;8.50;;
12900;SDS011;6518;50.930;5.344;2023-04-24T04:23:56;11.57;;;8.53;;
12900;SDS011;6518;50.930;5.344;2023-04-24T04:26:23;10.50;;;7.70;;
12900;SDS011;6518;50.930;5.344;2023-04-24T04:28:50;11.07;;;8.50;;
12900;SDS011;6518;50.930;5.344;2023-04-24T04:31:19;12.67;;;8.43;;
12900;SDS011;6518;50.930;5.344;2023-04-24T04:33:46;12.83;;;8.03;;
12900;SDS011;6518;50.930;5.344;2023-04-24T04:36:13;8.47;;;7.57;;
12900;SDS011;6518;50.930;5.344;2023-04-24T04:38:42;10.63;;;7.57;;
12900;SDS011;6518;50.930;5.344;2023-04-24T04:41:09;12.90;;;8.03;;
12900;SDS011;6518;50.930;5.344;2023-04-24T04:43:36;12.23;;;8.00;;
12900;SDS011;6518;50.930;5.344;2023-04-24T04:46:05;9.87;;;7.90;;
12900;SDS011;6518;50.930;5.344;2023-04-24T04:48:34;9.50;;;7.80;;
12900;SDS011;6518;50.930;5.344;2023-04-24T04:51:02;10.57;;;7.30;;
12900;SDS011;6518;50.930;5.344;2023-04-24T04:53:28;10.77;;;7.83;;
12900;SDS011;6518;50.930;5.344;2023-04-24T04:55:55;12.13;;;8.40;;
12900;SDS011;6518;50.930;5.344;2023-04-24T04:58:23;8.97;;;7.73;;
12900;SDS011;6518;50.930;5.344;2023-04-24T05:00:49;10.47;;;7.83;;
12900;SDS011;6518;50.930;5.344;2023-04-24T05:03:17;8.83;;;7.47;;
12900;SDS011;6518;50.930;5.344;2023-04-24T05:05:45;7.73;;;6.70;;
12900;SDS011;6518;50.930;5.344;2023-04-24T05:08:12;8.47;;;7.50;;
12900;SDS011;6518;50.930;5.344;2023-04-24T05:10:39;9.27;;;6.50;;
12900;SDS011;6518;50.930;5.344;2023-04-24T05:13:06;8.83;;;6.53;;
12900;SDS011;6518;50.930;5.344;2023-04-24T05:15:33;9.70;;;6.77;;
12900;SDS011;6518;50.930;5.344;2023-04-24T05:18:00;7.63;;;6.30;;
12900;SDS011;6518;50.930;5.344;2023-04-24T05:20:27;7.57;;;6.77;;
12900;SDS011;6518;50.930;5.344;2023-04-24T05:22:55;9.70;;;6.63;;
12900;SDS011;6518;50.930;5.344;2023-04-24T05:25:22;11.73;;;6.97;;
12900;SDS011;6518;50.930;5.344;2023-04-24T05:27:49;8.00;;;6.40;;
12900;SDS011;6518;50.930;5.344;2023-04-24T05:30:16;10.47;;;7.13;;
12900;SDS011;6518;50.930;5.344;2023-04-24T05:32:43;8.73;;;6.83;;
12900;SDS011;6518;50.930;5.344;2023-04-24T05:35:10;8.10;;;7.13;;
12900;SDS011;6518;50.930;5.344;2023-04-24T05:37:37;11.17;;;7.20;;
12900;SDS011;6518;50.930;5.344;2023-04-24T05:40:05;8.90;;;6.50;;
12900;SDS011;6518;50.930;5.344;2023-04-24T05:42:34;5.70;;;5.00;;
12900;SDS011;6518;50.930;5.344;2023-04-24T05:45:00;7.87;;;5.10;;
12900;SDS011;6518;50.930;5.344;2023-04-24T05:47:27;7.40;;;5.60;;
12900;SDS011;6518;50.930;5.344;2023-04-24T05:49:54;7.10;;;4.50;;
12900;SDS011;6518;50.930;5.344;2023-04-24T05:52:21;6.47;;;4.53;;
12900;SDS011;6518;50.930;5.344;2023-04-24T05:54:48;6.70;;;4.63;;
12900;SDS011;6518;50.930;5.344;2023-04-24T05:57:16;6.40;;;4.87;;
12900;SDS011;6518;50.930;5.344;2023-04-24T05:59:43;6.70;;;4.70;;
12900;SDS011;6518;50.930;5.344;2023-04-24T06:02:10;5.37;;;4.87;;
12900;SDS011;6518;50.930;5.344;2023-04-24T06:04:37;6.97;;;4.97;;
12900;SDS011;6518;50.930;5.344;2023-04-24T06:07:04;6.60;;;5.07;;
12900;SDS011;6518;50.930;5.344;2023-04-24T06:09:31;6.87;;;5.67;;
12900;SDS011;6518;50.930;5.344;2023-04-24T06:11:58;7.93;;;5.70;;
12900;SDS011;6518;50.930;5.344;2023-04-24T06:14:27;8.13;;;6.33;;
12900;SDS011;6518;50.930;5.344;2023-04-24T06:16:54;7.97;;;6.60;;
12900;SDS011;6518;50.930;5.344;2023-04-24T06:19:20;9.33;;;6.40;;
12900;SDS011;6518;50.930;5.344;2023-04-24T06:21:47;13.13;;;7.20;;
12900;SDS011;6518;50.930;5.344;2023-04-24T06:24:14;12.27;;;6.90;;
12900;SDS011;6518;50.930;5.344;2023-04-24T06:26:42;9.50;;;6.47;;
12900;SDS011;6518;50.930;5.344;2023-04-24T06:29:09;9.80;;;6.83;;
12900;SDS011;6518;50.930;5.344;2023-04-24T06:31:37;9.80;;;5.93;;
12900;SDS011;6518;50.930;5.344;2023-04-24T06:34:04;9.40;;;6.77;;
12900;SDS011;6518;50.930;5.344;2023-04-24T06:36:31;9.93;;;6.13;;
12900;SDS011;6518;50.930;5.344;2023-04-24T06:38:59;9.53;;;7.47;;
12900;SDS011;6518;50.930;5.344;2023-04-24T06:41:26;9.73;;;6.43;;
12900;SDS011;6518;50.930;5.344;2023-04-24T06:43:54;9.57;;;6.47;;
12900;SDS011;6518;50.930;5.344;2023-04-24T06:46:21;8.50;;;6.53;;
12900;SDS011;6518;50.930;5.344;2023-04-24T06:48:52;8.33;;;5.63;;
12900;SDS011;6518;50.930;5.344;2023-04-24T06:51:21;10.10;;;7.03;;
12900;SDS011;6518;50.930;5.344;2023-04-24T06:53:48;8.10;;;6.33;;
12900;SDS011;6518;50.930;5.344;2023-04-24T06:56:16;9.37;;;7.10;;
12900;SDS011;6518;50.930;5.344;2023-04-24T06:58:42;8.03;;;6.67;;
12900;SDS011;6518;50.930;5.344;2023-04-24T07:01:10;9.80;;;7.30;;
12900;SDS011;6518;50.930;5.344;2023-04-24T07:03:37;9.63;;;6.80;;
12900;SDS011;6518;50.930;5.344;2023-04-24T07:06:06;11.17;;;8.20;;
12900;SDS011;6518;50.930;5.344;2023-04-24T07:08:33;11.97;;;8.43;;
12900;SDS011;6518;50.930;5.344;2023-04-24T07:11:00;14.10;;;8.43;;
12900;SDS011;6518;50.930;5.344;2023-04-24T07:13:28;11.87;;;8.57;;
12900;SDS011;6518;50.930;5.344;2023-04-24T07:15:55;13.67;;;9.20;;
12900;SDS011;6518;50.930;5.344;2023-04-24T07:18:22;11.43;;;9.50;;
12900;SDS011;6518;50.930;5.344;2023-04-24T07:20:49;12.90;;;9.50;;
12900;SDS011;6518;50.930;5.344;2023-04-24T07:23:18;17.10;;;9.93;;
12900;SDS011;6518;50.930;5.344;2023-04-24T07:25:45;14.97;;;10.00;;
12900;SDS011;6518;50.930;5.344;2023-04-24T07:28:12;14.93;;;9.43;;
12900;SDS011;6518;50.930;5.344;2023-04-24T07:30:39;14.03;;;9.90;;
12900;SDS011;6518;50.930;5.344;2023-04-24T07:33:06;12.87;;;9.73;;
12900;SDS011;6518;50.930;5.344;2023-04-24T07:35:33;15.90;;;9.83;;
12900;SDS011;6518;50.930;5.344;2023-04-24T07:38:01;12.27;;;9.37;;
12900;SDS011;6518;50.930;5.344;2023-04-24T07:40:29;15.67;;;9.60;;
12900;SDS011;6518;50.930;5.344;2023-04-24T07:42:56;11.20;;;9.67;;
12900;SDS011;6518;50.930;5.344;2023-04-24T07:45:23;13.53;;;10.03;;
12900;SDS011;6518;50.930;5.344;2023-04-24T07:47:51;12.87;;;9.23;;
12900;SDS011;6518;50.930;5.344;2023-04-24T07:50:18;14.97;;;9.37;;
12900;SDS011;6518;50.930;5.344;2023-04-24T07:52:45;12.33;;;9.23;;
12900;SDS011;6518;50.930;5.344;2023-04-24T07:55:12;13.13;;;10.00;;
12900;SDS011;6518;50.930;5.344;2023-04-24T07:57:40;15.23;;;10.77;;
12900;SDS011;6518;50.930;5.344;2023-04-24T08:00:08;16.47;;;10.90;;
12900;SDS011;6518;50.930;5.344;2023-04-24T08:02:35;17.97;;;11.70;;
12900;SDS011;6518;50.930;5.344;2023-04-24T08:05:02;16.43;;;12.30;;
12900;SDS011;6518;50.930;5.344;2023-04-24T08:07:30;14.47;;;10.80;;
12900;SDS011;6518;50.930;5.344;2023-04-24T08:09:57;20.63;;;12.37;;
12900;SDS011;6518;50.930;5.344;2023-04-24T08:12:24;15.90;;;12.20;;
12900;SDS011;6518;50.930;5.344;2023-04-24T08:14:52;17.13;;;11.63;;
12900;SDS011;6518;50.930;5.344;2023-04-24T08:17:19;15.23;;;11.47;;
12900;SDS011;6518;50.930;5.344;2023-04-24T08:19:46;13.87;;;10.87;;
12900;SDS011;6518;50.930;5.344;2023-04-24T08:22:14;17.27;;;10.13;;
12900;SDS011;6518;50.930;5.344;2023-04-24T08:24:41;15.00;;;10.67;;
12900;SDS011;6518;50.930;5.344;2023-04-24T08:27:08;13.43;;;9.90;;
12900;SDS011;6518;50.930;5.344;2023-04-24T08:29:36;16.70;;;9.63;;
12900;SDS011;6518;50.930;5.344;2023-04-24T08:32:04;13.83;;;10.17;;
12900;SDS011;6518;50.930;5.344;2023-04-24T08:34:31;10.97;;;7.87;;
12900;SDS011;6518;50.930;5.344;2023-04-24T08:36:58;17.00;;;8.73;;
12900;SDS011;6518;50.930;5.344;2023-04-24T08:39:25;16.00;;;8.97;;
12900;SDS011;6518;50.930;5.344;2023-04-24T08:41:52;12.57;;;8.53;;
12900;SDS011;6518;50.930;5.344;2023-04-24T08:44:19;12.13;;;7.77;;
12900;SDS011;6518;50.930;5.344;2023-04-24T08:46:47;13.70;;;7.77;;
12900;SDS011;6518;50.930;5.344;2023-04-24T08:49:17;13.03;;;7.17;;
12900;SDS011;6518;50.930;5.344;2023-04-24T08:51:45;12.17;;;6.67;;
12900;SDS011;6518;50.930;5.344;2023-04-24T08:54:13;11.83;;;6.93;;
12900;SDS011;6518;50.930;5.344;2023-04-24T08:56:40;12.60;;;5.63;;
12900;SDS011;6518;50.930;5.344;2023-04-24T08:59:11;7.67;;;5.33;;
12900;SDS011;6518;50.930;5.344;2023-04-24T09:01:38;9.70;;;5.57;;
12900;SDS011;6518;50.930;5.344;2023-04-24T09:04:07;9.47;;;5.67;;
12900;SDS011;6518;50.930;5.344;2023-04-24T09:06:38;11.10;;;5.73;;
12900;SDS011;6518;50.930;5.344;2023-04-24T09:09:05;11.00;;;5.20;;
12900;SDS011;6518;50.930;5.344;2023-04-24T09:11:33;11.73;;;5.23;;
12900;SDS011;6518;50.930;5.344;2023-04-24T09:14:01;8.43;;;5.00;;
12900;SDS011;6518;50.930;5.344;2023-04-24T09:16:28;12.10;;;5.33;;
12900;SDS011;6518;50.930;5.344;2023-04-24T09:18:55;12.87;;;5.47;;
12900;SDS011;6518;50.930;5.344;2023-04-24T09:21:22;11.50;;;5.03;;
12900;SDS011;6518;50.930;5.344;2023-04-24T09:23:58;10.53;;;4.60;;
12900;SDS011;6518;50.930;5.344;2023-04-24T09:26:26;10.70;;;5.20;;
12900;SDS011;6518;50.930;5.344;2023-04-24T09:28:57;10.57;;;5.13;;
12900;SDS011;6518;50.930;5.344;2023-04-24T09:31:26;11.27;;;5.40;;
12900;SDS011;6518;50.930;5.344;2023-04-24T09:33:54;12.87;;;5.43;;
12900;SDS011;6518;50.930;5.344;2023-04-24T09:36:26;9.20;;;5.50;;
12900;SDS011;6518;50.930;5.344;2023-04-24T09:38:58;12.07;;;5.67;;
12900;SDS011;6518;50.930;5.344;2023-04-24T09:41:26;13.70;;;5.73;;
12900;SDS011;6518;50.930;5.344;2023-04-24T09:43:54;12.17;;;5.87;;
12900;SDS011;6518;50.930;5.344;2023-04-24T09:46:28;12.03;;;6.37;;
12900;SDS011;6518;50.930;5.344;2023-04-24T09:48:56;13.00;;;6.43;;
12900;SDS011;6518;50.930;5.344;2023-04-24T09:51:33;11.20;;;6.37;;
12900;SDS011;6518;50.930;5.344;2023-04-24T09:54:03;10.07;;;5.80;;
12900;SDS011;6518;50.930;5.344;2023-04-24T09:56:34;12.77;;;6.77;;
12900;SDS011;6518;50.930;5.344;2023-04-24T09:59:05;11.77;;;6.33;;
12900;SDS011;6518;50.930;5.344;2023-04-24T10:01:33;9.63;;;5.60;;
12900;SDS011;6518;50.930;5.344;2023-04-24T10:04:01;15.23;;;7.10;;
12900;SDS011;6518;50.930;5.344;2023-04-24T10:06:33;16.57;;;7.17;;
12900;SDS011;6518;50.930;5.344;2023-04-24T10:09:01;12.37;;;6.53;;
12900;SDS011;6518;50.930;5.344;2023-04-24T10:11:29;15.30;;;6.90;;
12900;SDS011;6518;50.930;5.344;2023-04-24T10:13:57;8.67;;;5.87;;
12900;SDS011;6518;50.930;5.344;2023-04-24T10:16:25;12.07;;;5.47;;
12900;SDS011;6518;50.930;5.344;2023-04-24T10:18:53;10.47;;;5.50;;
12900;SDS011;6518;50.930;5.344;2023-04-24T10:21:21;11.53;;;4.93;;
12900;SDS011;6518;50.930;5.344;2023-04-24T10:23:48;12.37;;;5.63;;
12900;SDS011;6518;50.930;5.344;2023-04-24T10:26:17;9.73;;;5.60;;
12900;SDS011;6518;50.930;5.344;2023-04-24T10:28:46;11.13;;;5.43;;
12900;SDS011;6518;50.930;5.344;2023-04-24T10:31:14;11.50;;;5.07;;
12900;SDS011;6518;50.930;5.344;2023-04-24T10:33:41;12.90;;;5.87;;
12900;SDS011;6518;50.930;5.344;2023-04-24T10:36:10;14.20;;;5.97;;
12900;SDS011;6518;50.930;5.344;2023-04-24T10:38:38;11.47;;;6.10;;
12900;SDS011;6518;50.930;5.344;2023-04-24T10:41:08;13.73;;;6.77;;
12900;SDS011;6518;50.930;5.344;2023-04-24T10:43:42;12.63;;;6.30;;
12900;SDS011;6518;50.930;5.344;2023-04-24T10:46:09;14.23;;;7.37;;
12900;SDS011;6518;50.930;5.344;2023-04-24T10:48:41;10.13;;;5.43;;
12900;SDS011;6518;50.930;5.344;2023-04-24T10:51:11;12.83;;;5.50;;
12900;SDS011;6518;50.930;5.344;2023-04-24T10:53:39;9.20;;;5.43;;
12900;SDS011;6518;50.930;5.344;2023-04-24T10:56:06;11.63;;;6.20;;
12900;SDS011;6518;50.930;5.344;2023-04-24T10:58:38;13.73;;;6.50;;
12900;SDS011;6518;50.930;5.344;2023-04-24T11:01:11;14.03;;;6.50;;
12900;SDS011;6518;50.930;5.344;2023-04-24T11:03:54;10.90;;;5.90;;
12900;SDS011;6518;50.930;5.344;2023-04-24T11:06:28;11.90;;;6.07;;
12900;SDS011;6518;50.930;5.344;2023-04-24T11:08:59;10.10;;;5.33;;
12900;SDS011;6518;50.930;5.344;2023-04-24T11:11:29;11.40;;;6.23;;
12900;SDS011;6518;50.930;5.344;2023-04-24T11:14:03;14.70;;;6.80;;
12900;SDS011;6518;50.930;5.344;2023-04-24T11:16:34;12.13;;;7.57;;
12900;SDS011;6518;50.930;5.344;2023-04-24T11:19:08;13.27;;;7.17;;
12900;SDS011;6518;50.930;5.344;2023-04-24T11:21:44;13.27;;;7.63;;
12900;SDS011;6518;50.930;5.344;2023-04-24T11:27:06;9.83;;;5.67;;
12900;SDS011;6518;50.930;5.344;2023-04-24T11:29:42;8.00;;;4.53;;
12900;SDS011;6518;50.930;5.344;2023-04-24T11:32:17;10.40;;;3.97;;
12900;SDS011;6518;50.930;5.344;2023-04-24T11:34:46;8.87;;;4.27;;
12900;SDS011;6518;50.930;5.344;2023-04-24T11:37:13;7.83;;;4.40;;
12900;SDS011;6518;50.930;5.344;2023-04-24T11:39:41;8.93;;;4.53;;
12900;SDS011;6518;50.930;5.344;2023-04-24T11:42:08;6.43;;;3.53;;
12900;SDS011;6518;50.930;5.344;2023-04-24T11:44:35;6.87;;;3.83;;
12900;SDS011;6518;50.930;5.344;2023-04-24T11:47:03;6.37;;;4.20;;
12900;SDS011;6518;50.930;5.344;2023-04-24T11:49:32;10.20;;;4.40;;
12900;SDS011;6518;50.930;5.344;2023-04-24T11:51:59;7.13;;;3.57;;
12900;SDS011;6518;50.930;5.344;2023-04-24T11:54:26;9.37;;;4.30;;
12900;SDS011;6518;50.930;5.344;2023-04-24T11:56:53;8.93;;;4.90;;
12900;SDS011;6518;50.930;5.344;2023-04-24T11:59:21;9.27;;;5.07;;
12900;SDS011;6518;50.930;5.344;2023-04-24T12:01:48;9.20;;;4.80;;
12900;SDS011;6518;50.930;5.344;2023-04-24T12:04:15;9.50;;;4.47;;
12900;SDS011;6518;50.930;5.344;2023-04-24T12:09:42;8.93;;;4.20;;
12900;SDS011;6518;50.930;5.344;2023-04-24T12:12:10;10.27;;;4.77;;
12900;SDS011;6518;50.930;5.344;2023-04-24T12:14:44;8.60;;;4.43;;
12900;SDS011;6518;50.930;5.344;2023-04-24T12:17:14;6.30;;;3.10;;
12900;SDS011;6518;50.930;5.344;2023-04-24T12:19:45;7.53;;;3.20;;
12900;SDS011;6518;50.930;5.344;2023-04-24T12:22:13;7.17;;;3.33;;
12900;SDS011;6518;50.930;5.344;2023-04-24T12:24:58;5.33;;;3.00;;
12900;SDS011;6518;50.930;5.344;2023-04-24T12:27:25;4.80;;;2.73;;
12900;SDS011;6518;50.930;5.344;2023-04-24T12:29:55;4.57;;;2.87;;
12900;SDS011;6518;50.930;5.344;2023-04-24T12:32:23;9.73;;;3.27;;
12900;SDS011;6518;50.930;5.344;2023-04-24T12:34:51;6.30;;;3.30;;
12900;SDS011;6518;50.930;5.344;2023-04-24T12:37:18;5.50;;;2.80;;
12900;SDS011;6518;50.930;5.344;2023-04-24T12:39:59;7.33;;;3.40;;
12900;SDS011;6518;50.930;5.344;2023-04-24T12:42:28;5.00;;;2.67;;
12900;SDS011;6518;50.930;5.344;2023-04-24T12:44:56;7.70;;;4.13;;
12900;SDS011;6518;50.930;5.344;2023-04-24T12:47:25;9.97;;;4.00;;
12900;SDS011;6518;50.930;5.344;2023-04-24T12:49:52;7.47;;;3.50;;
12900;SDS011;6518;50.930;5.344;2023-04-24T12:52:20;6.97;;;3.50;;
12900;SDS011;6518;50.930;5.344;2023-04-24T12:54:47;7.90;;;3.47;;
12900;SDS011;6518;50.930;5.344;2023-04-24T12:57:15;9.07;;;3.60;;
12900;SDS011;6518;50.930;5.344;2023-04-24T12:59:42;6.47;;;2.83;;
12900;SDS011;6518;50.930;5.344;2023-04-24T13:02:09;6.80;;;3.60;;
12900;SDS011;6518;50.930;5.344;2023-04-24T13:04:37;7.33;;;3.27;;
12900;SDS011;6518;50.930;5.344;2023-04-24T13:07:04;5.43;;;3.17;;
12900;SDS011;6518;50.930;5.344;2023-04-24T13:09:31;7.53;;;3.37;;
12900;SDS011;6518;50.930;5.344;2023-04-24T13:12:00;5.90;;;3.63;;
12900;SDS011;6518;50.930;5.344;2023-04-24T13:14:28;8.57;;;3.63;;
12900;SDS011;6518;50.930;5.344;2023-04-24T13:16:55;7.40;;;3.77;;
12900;SDS011;6518;50.930;5.344;2023-04-24T13:19:23;9.40;;;4.00;;
12900;SDS011;6518;50.930;5.344;2023-04-24T13:21:50;6.33;;;3.20;;
12900;SDS011;6518;50.930;5.344;2023-04-24T13:24:18;7.17;;;3.70;;
12900;SDS011;6518;50.930;5.344;2023-04-24T13:26:45;6.53;;;3.93;;
12900;SDS011;6518;50.930;5.344;2023-04-24T13:29:12;6.63;;;3.27;;
12900;SDS011;6518;50.930;5.344;2023-04-24T13:31:40;7.97;;;4.00;;
12900;SDS011;6518;50.930;5.344;2023-04-24T13:34:07;5.43;;;3.53;;
12900;SDS011;6518;50.930;5.344;2023-04-24T13:36:34;7.40;;;3.43;;
12900;SDS011;6518;50.930;5.344;2023-04-24T13:39:01;6.53;;;3.43;;
12900;SDS011;6518;50.930;5.344;2023-04-24T13:41:29;8.10;;;4.13;;
12900;SDS011;6518;50.930;5.344;2023-04-24T13:43:56;6.33;;;3.40;;
12900;SDS011;6518;50.930;5.344;2023-04-24T13:46:23;6.73;;;3.67;;
12900;SDS011;6518;50.930;5.344;2023-04-24T13:48:51;5.63;;;3.47;;
12900;SDS011;6518;50.930;5.344;2023-04-24T13:51:18;7.33;;;3.80;;
12900;SDS011;6518;50.930;5.344;2023-04-24T13:53:45;7.87;;;4.00;;
12900;SDS011;6518;50.930;5.344;2023-04-24T13:56:12;5.93;;;3.80;;
12900;SDS011;6518;50.930;5.344;2023-04-24T13:58:39;8.40;;;3.80;;
12900;SDS011;6518;50.930;5.344;2023-04-24T14:01:06;8.23;;;3.90;;
12900;SDS011;6518;50.930;5.344;2023-04-24T14:03:33;8.60;;;4.03;;
12900;SDS011;6518;50.930;5.344;2023-04-24T14:06:01;7.53;;;3.47;;
12900;SDS011;6518;50.930;5.344;2023-04-24T14:08:28;8.90;;;3.77;;
12900;SDS011;6518;50.930;5.344;2023-04-24T14:10:55;9.03;;;4.10;;
12900;SDS011;6518;50.930;5.344;2023-04-24T14:13:22;5.43;;;3.37;;
12900;SDS011;6518;50.930;5.344;2023-04-24T14:15:50;6.23;;;3.13;;
12900;SDS011;6518;50.930;5.344;2023-04-24T14:18:17;4.43;;;3.20;;
12900;SDS011;6518;50.930;5.344;2023-04-24T14:20:45;5.23;;;3.13;;
12900;SDS011;6518;50.930;5.344;2023-04-24T14:23:13;6.20;;;3.50;;
12900;SDS011;6518;50.930;5.344;2023-04-24T14:25:40;5.60;;;3.30;;
12900;SDS011;6518;50.930;5.344;2023-04-24T14:28:07;6.60;;;3.30;;
12900;SDS011;6518;50.930;5.344;2023-04-24T14:30:34;8.83;;;3.17;;
12900;SDS011;6518;50.930;5.344;2023-04-24T14:33:02;5.53;;;3.30;;
12900;SDS011;6518;50.930;5.344;2023-04-24T14:35:29;6.37;;;3.50;;
12900;SDS011;6518;50.930;5.344;2023-04-24T14:37:59;6.47;;;3.07;;
12900;SDS011;6518;50.930;5.344;2023-04-24T14:40:27;6.20;;;3.47;;
12900;SDS011;6518;50.930;5.344;2023-04-24T14:42:54;7.03;;;3.33;;
12900;SDS011;6518;50.930;5.344;2023-04-24T14:45:23;5.47;;;3.30;;
12900;SDS011;6518;50.930;5.344;2023-04-24T14:47:50;5.33;;;2.80;;
12900;SDS011;6518;50.930;5.344;2023-04-24T14:50:17;5.57;;;3.07;;
12900;SDS011;6518;50.930;5.344;2023-04-24T14:52:44;6.50;;;3.47;;
12900;SDS011;6518;50.930;5.344;2023-04-24T14:55:11;6.03;;;3.13;;
12900;SDS011;6518;50.930;5.344;2023-04-24T14:57:40;6.17;;;3.00;;
12900;SDS011;6518;50.930;5.344;2023-04-24T15:00:07;6.17;;;3.10;;